Time;durP1;ratioP1;P1;durP2;ratioP2;P2;SDS_P1;SDS_P2;PMS_P1;PMS_P2;Temp;Humidity;BMP_temperature;BMP_pressure;BME280_temperature;BME280_humidity;BME280_pressure;Samples;Min_cycle;Max_cycle;Signal;HPM_P1;HPM_P2
2021/06/05 00:00:11;;;;;;;9.23;7.80;;;18.70;97.50;;;;;;5029532;28;20981;-48
2021/06/05 00:02:37;;;;;;;8.50;7.80;;;18.30;97.40;;;;;;5029736;28;20973;-48
2021/06/05 00:05:06;;;;;;;8.47;7.70;;;18.50;97.50;;;;;;5029900;28;20485;-49
2021/06/05 00:07:32;;;;;;;9.20;8.40;;;18.30;97.50;;;;;;5031765;28;20529;-49
2021/06/05 00:09:58;;;;;;;8.70;7.90;;;18.10;97.50;;;;;;5033653;28;20438;-49
2021/06/05 00:12:27;;;;;;;9.13;8.17;;;18.40;97.80;;;;;;5033861;28;20451;-48
2021/06/05 00:14:55;;;;;;;9.40;8.50;;;18.30;97.80;;;;;;5033684;28;20456;-49
2021/06/05 00:17:21;;;;;;;8.00;7.30;;;18.40;97.90;;;;;;5033614;28;20462;-49
2021/06/05 00:19:48;;;;;;;8.43;7.60;;;18.40;98.00;;;;;;5031162;28;20556;-49
2021/06/05 00:22:14;;;;;;;8.70;7.97;;;18.20;98.00;;;;;;5033412;28;20442;-48
2021/06/05 00:24:42;;;;;;;9.20;8.30;;;18.30;98.20;;;;;;5033339;28;20962;-49
2021/06/05 00:27:09;;;;;;;9.10;8.20;;;18.20;98.20;;;;;;5033367;28;20474;-49
2021/06/05 00:29:35;;;;;;;8.83;8.03;;;18.20;98.30;;;;;;5033165;28;20442;-49
2021/06/05 00:32:03;;;;;;;9.00;7.47;;;18.00;98.20;;;;;;5032622;28;20468;-49
2021/06/05 00:34:31;;;;;;;8.70;8.00;;;18.10;98.40;;;;;;5033230;28;20445;-49
2021/06/05 00:36:58;;;;;;;9.17;7.70;;;18.20;98.50;;;;;;5032997;28;20454;-49
2021/06/05 00:39:24;;;;;;;9.30;7.60;;;18.30;98.70;;;;;;5032880;28;20556;-49
2021/06/05 00:41:50;;;;;;;8.80;8.07;;;18.00;98.60;;;;;;5031761;28;20819;-49
2021/06/05 00:44:17;;;;;;;8.90;8.00;;;17.60;98.50;;;;;;5033338;28;20469;-49
2021/06/05 00:46:43;;;;;;;8.83;7.93;;;18.00;98.80;;;;;;5032803;28;20817;-49
2021/06/05 00:49:11;;;;;;;8.53;7.73;;;18.40;99.10;;;;;;5031059;28;20505;-49
2021/06/05 00:51:42;;;;;;;8.20;7.40;;;18.00;98.90;;;;;;5031559;28;20453;-49
2021/06/05 00:54:10;;;;;;;9.13;8.30;;;18.00;98.90;;;;;;5033169;28;20535;-49
2021/06/05 00:56:38;;;;;;;8.13;7.27;;;17.90;98.90;;;;;;5031502;28;20454;-49
2021/06/05 00:59:05;;;;;;;8.70;7.90;;;18.10;99.10;;;;;;5032572;28;20433;-47
2021/06/05 01:01:36;;;;;;;8.60;7.80;;;18.20;99.20;;;;;;5031608;28;20458;-48
2021/06/05 01:04:03;;;;;;;8.17;7.40;;;17.90;99.10;;;;;;5030914;28;20545;-48
2021/06/05 01:06:39;;;;;;;8.40;7.60;;;18.20;99.30;;;;;;5030892;28;20461;-48
2021/06/05 01:09:15;;;;;;;11.30;7.73;;;17.80;99.20;;;;;;5032007;28;20474;-48
2021/06/05 01:11:49;;;;;;;9.07;8.17;;;18.20;99.40;;;;;;5030895;28;20500;-48
2021/06/05 01:14:27;;;;;;;8.23;7.40;;;17.70;99.20;;;;;;5031112;28;20788;-48
2021/06/05 01:16:57;;;;;;;8.43;7.63;;;18.00;99.50;;;;;;5032037;28;20467;-48
2021/06/05 01:19:50;;;;;;;7.83;7.17;;;18.00;99.50;;;;;;5030217;28;20470;-48
2021/06/05 01:22:29;;;;;;;11.10;7.53;;;18.00;99.50;;;;;;5030726;28;20515;-48
2021/06/05 01:25:10;;;;;;;9.47;8.57;;;18.00;99.50;;;;;;5030460;28;20486;-49
2021/06/05 01:27:43;;;;;;;10.67;8.50;;;17.70;99.50;;;;;;5030367;28;20471;-48
2021/06/05 01:30:19;;;;;;;10.97;9.97;;;17.80;99.60;;;;;;5030186;28;20886;-49
2021/06/05 01:32:50;;;;;;;11.30;7.90;;;18.00;99.80;;;;;;5031786;28;20486;-49
2021/06/05 01:35:16;;;;;;;9.03;8.13;;;17.70;99.60;;;;;;5031849;28;20443;-49
2021/06/05 01:37:45;;;;;;;8.90;8.00;;;17.80;99.70;;;;;;5030398;28;20541;-48
2021/06/05 01:40:19;;;;;;;9.30;8.27;;;17.70;99.80;;;;;;5031652;28;20442;-48
2021/06/05 01:42:47;;;;;;;9.27;8.47;;;17.80;99.90;;;;;;5032176;28;20554;-48
2021/06/05 01:45:25;;;;;;;10.03;9.03;;;17.70;99.90;;;;;;5030752;28;20489;-48
2021/06/05 01:47:54;;;;;;;15.20;9.93;;;17.60;99.90;;;;;;5031798;28;20494;-48
2021/06/05 01:50:23;;;;;;;9.20;8.40;;;17.40;99.80;;;;;;5031456;28;20440;-48
2021/06/05 01:52:51;;;;;;;9.90;9.00;;;17.70;99.90;;;;;;5030028;28;20466;-48
2021/06/05 01:55:24;;;;;;;9.93;9.07;;;17.60;99.90;;;;;;5031399;28;20811;-48
2021/06/05 01:57:58;;;;;;;9.80;8.90;;;17.60;99.90;;;;;;5029906;28;20482;-48
2021/06/05 02:00:37;;;;;;;9.40;8.50;;;17.60;99.90;;;;;;5030128;28;20904;-48
2021/06/05 02:03:06;;;;;;;9.40;8.60;;;17.70;99.90;;;;;;5029884;28;20463;-48
2021/06/05 02:05:38;;;;;;;9.43;8.50;;;17.80;99.90;;;;;;5031403;28;20576;-48
2021/06/05 02:08:11;;;;;;;9.10;8.30;;;17.60;99.90;;;;;;5030845;28;20469;-48
2021/06/05 02:10:38;;;;;;;10.10;9.13;;;17.50;99.90;;;;;;5029797;28;21041;-48
2021/06/05 02:13:13;;;;;;;10.30;9.40;;;17.50;99.90;;;;;;5029532;28;20455;-48
2021/06/05 02:16:13;;;;;;;9.50;8.70;;;17.60;99.90;;;;;;5029387;28;20528;-48
2021/06/05 02:18:44;;;;;;;9.53;8.63;;;17.60;99.90;;;;;;5028723;28;20496;-48
2021/06/05 02:21:18;;;;;;;10.10;9.20;;;17.40;99.90;;;;;;5029288;28;20481;-48
2021/06/05 02:23:51;;;;;;;10.80;9.30;;;17.40;99.90;;;;;;5028465;28;20449;-49
2021/06/05 02:26:19;;;;;;;10.30;9.40;;;17.20;99.90;;;;;;5028762;28;20564;-48
2021/06/05 02:28:52;;;;;;;9.87;8.97;;;17.60;99.90;;;;;;5028961;28;20557;-49
2021/06/05 02:31:18;;;;;;;10.43;9.40;;;17.30;99.90;;;;;;5030186;28;20476;-49
2021/06/05 02:33:45;;;;;;;10.60;9.50;;;17.20;99.90;;;;;;5030667;28;20541;-49
2021/06/05 02:36:13;;;;;;;10.33;9.20;;;17.40;99.90;;;;;;5029017;28;20444;-49
2021/06/05 02:38:46;;;;;;;10.63;9.60;;;17.40;99.90;;;;;;5028595;28;20469;-48
2021/06/05 02:41:19;;;;;;;9.60;8.50;;;17.30;99.90;;;;;;5028774;28;20839;-48
2021/06/05 02:43:51;;;;;;;9.50;8.60;;;17.30;99.90;;;;;;5030097;28;20905;-49
2021/06/05 02:46:20;;;;;;;9.90;8.90;;;17.20;99.90;;;;;;5028954;28;20476;-49
2021/06/05 02:48:49;;;;;;;10.10;8.90;;;17.30;99.90;;;;;;5028241;28;20926;-49
2021/06/05 02:51:20;;;;;;;9.90;9.07;;;17.00;99.90;;;;;;5028840;28;20548;-49
2021/06/05 02:53:48;;;;;;;10.37;9.37;;;17.10;99.90;;;;;;5028747;28;20550;-48
2021/06/05 02:56:15;;;;;;;10.33;9.33;;;17.50;99.90;;;;;;5028493;28;20795;-49
2021/06/05 02:58:42;;;;;;;10.30;8.67;;;17.60;99.90;;;;;;5028314;28;20970;-49
2021/06/05 03:01:12;;;;;;;9.97;8.97;;;16.90;99.90;;;;;;5028454;28;20533;-49
2021/06/05 03:03:41;;;;;;;10.13;9.10;;;17.30;99.90;;;;;;5028509;28;20531;-49
2021/06/05 03:06:08;;;;;;;10.30;9.40;;;17.20;99.90;;;;;;5029981;28;20964;-49
2021/06/05 03:08:38;;;;;;;10.80;9.80;;;17.20;99.90;;;;;;5028233;28;20811;-49
2021/06/05 03:11:07;;;;;;;8.67;7.87;;;17.10;99.90;;;;;;5029836;28;20437;-49
2021/06/05 03:13:36;;;;;;;9.67;8.77;;;17.70;99.90;;;;;;5029930;28;20811;-48
2021/06/05 03:16:03;;;;;;;8.97;8.07;;;17.50;99.90;;;;;;5028576;28;20451;-48
2021/06/05 03:18:37;;;;;;;9.43;8.63;;;17.30;99.90;;;;;;5027897;28;20480;-49
2021/06/05 03:21:09;;;;;;;10.60;9.60;;;17.40;99.90;;;;;;5028635;28;20861;-48
2021/06/05 03:23:36;;;;;;;9.73;8.83;;;17.10;99.90;;;;;;5028372;28;20538;-48
2021/06/05 03:26:06;;;;;;;13.93;8.97;;;17.20;99.90;;;;;;5028318;28;21058;-48
2021/06/05 03:28:37;;;;;;;10.47;9.47;;;17.40;99.90;;;;;;5028332;28;20465;-48
2021/06/05 03:31:06;;;;;;;10.83;9.47;;;17.30;99.90;;;;;;5027969;28;20446;-49
2021/06/05 03:33:32;;;;;;;8.57;7.70;;;17.40;99.90;;;;;;5029633;28;20472;-48
2021/06/05 03:36:07;;;;;;;10.27;9.17;;;17.20;99.90;;;;;;5028234;28;20518;-48
2021/06/05 03:38:34;;;;;;;9.80;8.80;;;17.40;99.90;;;;;;5027903;28;20518;-49
2021/06/05 03:41:03;;;;;;;12.93;8.60;;;17.30;99.90;;;;;;5028298;28;20472;-48
2021/06/05 03:43:29;;;;;;;9.50;8.70;;;17.40;99.90;;;;;;5033335;28;20440;-48
2021/06/05 03:45:56;;;;;;;9.43;8.43;;;17.40;99.90;;;;;;5032200;28;20512;-48
2021/06/05 03:48:23;;;;;;;9.33;8.40;;;17.30;99.90;;;;;;5031765;28;20493;-48
2021/06/05 03:50:52;;;;;;;10.83;8.83;;;17.60;99.90;;;;;;5032383;28;20544;-48
2021/06/05 03:53:23;;;;;;;7.97;7.27;;;17.80;99.90;;;;;;5032267;28;20508;-48
2021/06/05 03:55:51;;;;;;;9.57;8.60;;;17.70;99.90;;;;;;5033701;28;20809;-48
2021/06/05 03:58:23;;;;;;;9.07;8.30;;;17.90;99.90;;;;;;5033327;28;20623;-48
2021/06/05 04:00:49;;;;;;;8.60;7.80;;;18.10;99.90;;;;;;5033456;28;20454;-49
2021/06/05 04:03:16;;;;;;;8.20;7.40;;;17.60;99.90;;;;;;5033503;28;20522;-49
2021/06/05 04:05:42;;;;;;;8.17;7.40;;;17.60;99.90;;;;;;5033531;28;20481;-53
2021/06/05 04:08:11;;;;;;;8.70;7.93;;;18.00;99.90;;;;;;5032965;28;20462;-48
2021/06/05 04:10:39;;;;;;;6.93;6.33;;;18.10;99.90;;;;;;5033446;28;20450;-48
2021/06/05 04:13:05;;;;;;;8.97;8.17;;;18.30;99.90;;;;;;5033272;28;20521;-49
2021/06/05 04:15:33;;;;;;;7.87;7.17;;;18.20;99.90;;;;;;5032908;28;20925;-48
2021/06/05 04:18:02;;;;;;;8.53;7.73;;;18.30;99.90;;;;;;5032937;28;20484;-49
2021/06/05 04:20:29;;;;;;;8.60;7.80;;;18.80;99.90;;;;;;5033468;28;20472;-49
2021/06/05 04:22:55;;;;;;;8.83;8.10;;;18.40;99.40;;;;;;5033281;28;20448;-49
2021/06/05 04:25:22;;;;;;;8.37;7.43;;;18.40;99.10;;;;;;5033006;28;20478;-49
2021/06/05 04:27:50;;;;;;;7.97;7.10;;;18.80;99.00;;;;;;5033217;28;21124;-49
2021/06/05 04:30:17;;;;;;;8.23;7.43;;;18.90;98.80;;;;;;5032535;28;20474;-49
2021/06/05 04:32:44;;;;;;;8.73;6.90;;;19.00;98.60;;;;;;5032814;28;20530;-49
2021/06/05 04:35:12;;;;;;;7.40;6.80;;;19.10;98.40;;;;;;5032788;28;20463;-48
2021/06/05 04:37:38;;;;;;;7.47;6.70;;;19.10;98.30;;;;;;5032842;28;20454;-48
2021/06/05 04:40:06;;;;;;;7.20;6.50;;;19.60;98.20;;;;;;5032351;28;20537;-49
2021/06/05 04:42:32;;;;;;;6.90;6.40;;;19.20;97.80;;;;;;5032716;28;20427;-48
2021/06/05 04:44:59;;;;;;;7.70;7.00;;;19.60;97.70;;;;;;5032651;28;20489;-48
2021/06/05 04:47:26;;;;;;;6.50;6.00;;;19.40;97.10;;;;;;5058414;22;20490;-46
2021/06/05 04:49:52;;;;;;;7.27;6.57;;;20.00;97.10;;;;;;5053940;28;20584;-44
2021/06/05 04:52:18;;;;;;;6.97;6.27;;;20.00;96.80;;;;;;5053607;28;20502;-46
2021/06/05 04:54:44;;;;;;;13.33;7.70;;;20.10;96.50;;;;;;5054164;28;20519;-44
2021/06/05 04:57:10;;;;;;;6.37;5.73;;;20.00;96.10;;;;;;5054371;28;20482;-45
2021/06/05 04:59:37;;;;;;;6.90;6.27;;;20.30;95.90;;;;;;5054272;28;20974;-45
2021/06/05 05:02:05;;;;;;;6.43;5.50;;;20.50;95.60;;;;;;5054474;28;20443;-45
2021/06/05 05:04:31;;;;;;;6.30;5.70;;;20.40;95.10;;;;;;5054053;28;20918;-45
2021/06/05 05:06:57;;;;;;;6.50;5.93;;;20.90;94.90;;;;;;5053829;28;20436;-45
2021/06/05 05:09:23;;;;;;;6.03;5.43;;;20.60;94.50;;;;;;5053695;28;20445;-45
2021/06/05 05:11:49;;;;;;;5.77;5.27;;;20.70;94.20;;;;;;5053808;28;20426;-44
2021/06/05 05:14:15;;;;;;;5.47;5.07;;;20.90;94.10;;;;;;5053801;28;20424;-44
2021/06/05 05:16:41;;;;;;;12.63;6.37;;;21.00;93.80;;;;;;5053649;28;20436;-44
2021/06/05 05:19:09;;;;;;;9.60;6.40;;;20.90;93.50;;;;;;5053091;28;20456;-45
2021/06/05 05:21:36;;;;;;;6.10;5.50;;;21.10;93.50;;;;;;5053666;28;20436;-45
2021/06/05 05:24:02;;;;;;;5.83;5.33;;;21.00;93.20;;;;;;5053437;28;20898;-45
2021/06/05 05:26:29;;;;;;;6.23;4.90;;;21.20;92.70;;;;;;5053428;28;20482;-45
2021/06/05 05:28:56;;;;;;;6.00;5.17;;;21.40;92.70;;;;;;5053128;28;20461;-45
2021/06/05 05:31:25;;;;;;;5.17;4.67;;;21.50;92.60;;;;;;5053421;28;20457;-45
2021/06/05 05:33:51;;;;;;;5.60;5.10;;;21.10;92.10;;;;;;5053348;28;20429;-45
2021/06/05 05:36:22;;;;;;;5.90;5.33;;;21.40;91.90;;;;;;5051814;28;20553;-45
2021/06/05 05:38:48;;;;;;;6.17;4.97;;;21.90;91.90;;;;;;5052931;28;20495;-45
2021/06/05 05:41:17;;;;;;;7.13;4.23;;;21.60;91.20;;;;;;5053245;28;20433;-45
2021/06/05 05:43:43;;;;;;;5.73;5.20;;;21.50;90.80;;;;;;5053150;28;20438;-45
2021/06/05 05:46:10;;;;;;;6.47;4.57;;;21.80;90.90;;;;;;5052716;28;20490;-46
2021/06/05 05:48:38;;;;;;;6.70;5.10;;;22.00;90.70;;;;;;5052647;28;20465;-45
2021/06/05 05:51:06;;;;;;;6.30;5.10;;;22.10;90.30;;;;;;5052898;28;20442;-45
2021/06/05 05:53:36;;;;;;;5.50;5.00;;;21.90;90.20;;;;;;5052802;28;20440;-45
2021/06/05 05:56:02;;;;;;;5.17;4.67;;;22.00;90.00;;;;;;5051888;28;20469;-45
2021/06/05 05:58:28;;;;;;;5.50;5.00;;;21.90;89.40;;;;;;5052614;28;20461;-45
2021/06/05 06:00:55;;;;;;;5.80;5.30;;;22.30;89.70;;;;;;5053016;28;20441;-45
2021/06/05 06:03:24;;;;;;;6.33;4.97;;;22.30;89.30;;;;;;5053013;28;20434;-45
2021/06/05 06:05:50;;;;;;;6.77;4.73;;;22.30;88.60;;;;;;5051891;28;20492;-45
2021/06/05 06:08:19;;;;;;;5.80;5.03;;;22.40;88.90;;;;;;5052716;28;20453;-44
2021/06/05 06:10:48;;;;;;;4.90;4.33;;;22.30;88.30;;;;;;5052795;28;20481;-44
2021/06/05 06:13:14;;;;;;;5.73;5.30;;;22.10;87.60;;;;;;5052820;28;20456;-45
2021/06/05 06:15:41;;;;;;;11.70;5.77;;;22.80;88.20;;;;;;5052720;28;20439;-45
2021/06/05 06:18:08;;;;;;;7.53;5.20;;;22.60;87.70;;;;;;5052298;28;20817;-44
2021/06/05 06:20:40;;;;;;;5.97;5.43;;;22.40;87.30;;;;;;5052550;28;20440;-45
2021/06/05 06:23:07;;;;;;;6.10;5.40;;;22.60;87.40;;;;;;5052453;28;20431;-45
2021/06/05 06:25:39;;;;;;;5.60;5.10;;;22.60;86.70;;;;;;5052634;28;20479;-45
2021/06/05 06:28:08;;;;;;;5.97;5.20;;;22.20;86.30;;;;;;5052142;28;20533;-45
2021/06/05 06:30:36;;;;;;;6.20;5.60;;;22.80;86.80;;;;;;5051133;28;20462;-45
2021/06/05 06:33:04;;;;;;;6.13;5.33;;;23.00;86.90;;;;;;5052394;28;20435;-45
2021/06/05 06:35:32;;;;;;;5.70;5.20;;;22.90;86.50;;;;;;5052316;28;20444;-46
2021/06/05 06:37:59;;;;;;;6.57;5.87;;;23.00;86.20;;;;;;5051949;28;20459;-45
2021/06/05 06:40:29;;;;;;;5.80;5.30;;;23.10;85.80;;;;;;5052097;28;20435;-45
2021/06/05 06:42:55;;;;;;;7.63;5.30;;;22.80;85.70;;;;;;5052251;28;20425;-45
2021/06/05 06:45:23;;;;;;;5.20;4.70;;;22.90;86.20;;;;;;5051770;28;20465;-45
2021/06/05 06:47:50;;;;;;;9.97;5.23;;;22.70;85.00;;;;;;5051924;28;20788;-45
2021/06/05 06:50:20;;;;;;;5.43;5.00;;;23.00;85.30;;;;;;5051841;28;20541;-45
2021/06/05 06:52:46;;;;;;;6.20;4.90;;;22.80;84.80;;;;;;5052163;28;20930;-45
2021/06/05 06:55:13;;;;;;;5.63;4.77;;;23.30;84.60;;;;;;5052159;28;20445;-45
2021/06/05 06:57:40;;;;;;;6.97;5.23;;;23.00;83.90;;;;;;5051937;28;20789;-45
2021/06/05 07:00:10;;;;;;;6.60;6.00;;;23.20;83.70;;;;;;5051468;28;20804;-45
2021/06/05 07:02:37;;;;;;;9.10;5.40;;;23.30;83.90;;;;;;5051793;28;20468;-45
2021/06/05 07:05:04;;;;;;;4.93;4.53;;;23.20;83.70;;;;;;5050223;28;20487;-45
2021/06/05 07:07:30;;;;;;;5.13;4.63;;;23.20;83.10;;;;;;5050147;28;21020;-45
2021/06/05 07:09:56;;;;;;;6.77;4.77;;;23.00;82.70;;;;;;5051760;28;20439;-45
2021/06/05 07:12:23;;;;;;;5.17;4.60;;;23.20;82.60;;;;;;5051751;28;20433;-45
2021/06/05 07:14:49;;;;;;;4.80;4.30;;;22.90;80.00;;;;;;5051205;28;20518;-45
2021/06/05 07:17:15;;;;;;;5.03;3.90;;;23.00;80.20;;;;;;5051104;28;21000;-46
2021/06/05 07:19:42;;;;;;;4.43;4.03;;;23.10;80.00;;;;;;5051548;28;20467;-47
2021/06/05 07:22:09;;;;;;;6.83;4.40;;;23.60;80.40;;;;;;5050567;28;20445;-44
2021/06/05 07:24:35;;;;;;;4.97;4.30;;;23.10;79.60;;;;;;5051866;28;20437;-44
2021/06/05 07:27:01;;;;;;;4.13;3.77;;;23.70;79.30;;;;;;5051406;28;20440;-44
2021/06/05 07:29:27;;;;;;;4.20;3.77;;;23.70;78.60;;;;;;5050843;28;20448;-45
2021/06/05 07:31:54;;;;;;;4.97;4.07;;;23.30;77.60;;;;;;5051525;28;20440;-44
2021/06/05 07:34:24;;;;;;;7.23;3.60;;;23.10;77.00;;;;;;5051241;28;20437;-45
2021/06/05 07:36:54;;;;;;;4.80;3.63;;;23.50;76.90;;;;;;5051673;28;20425;-44
2021/06/05 07:39:26;;;;;;;6.40;3.80;;;23.60;76.90;;;;;;5050972;28;20555;-43
2021/06/05 07:41:54;;;;;;;3.60;3.30;;;23.90;77.20;;;;;;5051528;28;20434;-45
2021/06/05 07:44:21;;;;;;;3.90;3.60;;;23.70;76.80;;;;;;5051598;28;20854;-45
2021/06/05 07:46:51;;;;;;;3.63;3.23;;;23.90;76.30;;;;;;5051002;28;20477;-44
2021/06/05 07:49:17;;;;;;;4.03;3.63;;;23.40;75.30;;;;;;5050384;28;20471;-45
2021/06/05 07:51:44;;;;;;;4.60;3.73;;;23.60;75.00;;;;;;5051270;28;20435;-44
2021/06/05 07:54:11;;;;;;;4.00;3.60;;;23.60;75.00;;;;;;5051149;28;20433;-45
2021/06/05 07:56:37;;;;;;;5.70;3.43;;;23.80;74.40;;;;;;5051019;28;20575;-44
2021/06/05 07:59:04;;;;;;;4.87;3.30;;;24.00;73.40;;;;;;5050459;28;20544;-43
2021/06/05 08:01:30;;;;;;;4.23;3.90;;;23.90;73.00;;;;;;5051036;28;20464;-45
2021/06/05 08:03:56;;;;;;;3.70;3.40;;;24.10;73.30;;;;;;5049483;28;20523;-45
2021/06/05 08:06:23;;;;;;;5.30;3.83;;;23.80;72.80;;;;;;5051117;28;20481;-45
2021/06/05 08:08:49;;;;;;;5.10;3.63;;;23.90;73.00;;;;;;5050405;28;20452;-45
2021/06/05 08:11:17;;;;;;;4.03;3.63;;;24.00;72.90;;;;;;5051265;28;20936;-45
2021/06/05 08:13:44;;;;;;;3.60;3.30;;;23.80;71.90;;;;;;5051397;28;20438;-45
2021/06/05 08:16:10;;;;;;;5.27;3.60;;;24.00;71.70;;;;;;5050983;28;20438;-45
2021/06/05 08:18:37;;;;;;;4.47;3.60;;;24.30;71.20;;;;;;5050264;28;20458;-45
2021/06/05 08:21:06;;;;;;;4.00;3.70;;;24.10;70.60;;;;;;5050980;28;20442;-45
2021/06/05 08:23:34;;;;;;;4.50;3.70;;;24.00;70.40;;;;;;5050623;28;20776;-45
2021/06/05 08:26:01;;;;;;;3.77;3.47;;;24.10;70.70;;;;;;5050870;28;20478;-44
2021/06/05 08:28:29;;;;;;;4.27;3.97;;;24.10;70.50;;;;;;5052489;28;20978;-45
2021/06/05 08:30:59;;;;;;;5.00;4.00;;;24.30;70.90;;;;;;5054785;28;20449;-45
2021/06/05 08:33:25;;;;;;;4.63;3.77;;;24.20;71.00;;;;;;5054371;28;20438;-44
2021/06/05 08:35:52;;;;;;;5.50;3.90;;;24.30;70.80;;;;;;5054511;28;20438;-45
2021/06/05 08:38:21;;;;;;;4.30;3.70;;;24.20;70.20;;;;;;5054603;28;20521;-45
2021/06/05 08:40:51;;;;;;;5.60;4.03;;;24.30;70.20;;;;;;5055168;28;20511;-46
2021/06/05 08:43:32;;;;;;;6.00;4.00;;;24.10;70.00;;;;;;5057545;28;21035;-46
2021/06/05 08:46:00;;;;;;;5.00;3.70;;;24.20;70.10;;;;;;5056741;28;20473;-46
2021/06/05 08:48:27;;;;;;;3.77;3.30;;;24.20;69.80;;;;;;5054835;28;20568;-45
2021/06/05 08:51:13;;;;;;;4.37;3.77;;;23.80;69.10;;;;;;5054881;28;20474;-46
2021/06/05 08:53:40;;;;;;;4.20;3.80;;;24.10;69.50;;;;;;5054527;28;20434;-45
2021/06/05 08:56:12;;;;;;;6.00;4.80;;;24.20;69.40;;;;;;5054417;28;20465;-46
2021/06/05 08:58:44;;;;;;;4.97;4.47;;;24.30;69.70;;;;;;5053617;28;20449;-46
2021/06/05 09:01:14;;;;;;;4.40;3.83;;;24.20;69.60;;;;;;5053991;28;20568;-45
2021/06/05 09:03:42;;;;;;;5.83;5.13;;;24.10;70.20;;;;;;5052987;28;20540;-46
2021/06/05 09:06:16;;;;;;;5.27;4.87;;;24.10;69.20;;;;;;5053584;28;20492;-46
2021/06/05 09:08:42;;;;;;;4.80;4.40;;;24.20;68.90;;;;;;5053526;28;20905;-45
2021/06/05 09:11:11;;;;;;;4.53;4.13;;;24.30;69.10;;;;;;5052096;28;20450;-46
2021/06/05 09:13:39;;;;;;;4.63;4.10;;;24.30;68.80;;;;;;5053691;28;20978;-45
2021/06/05 09:16:23;;;;;;;4.57;3.87;;;24.10;68.30;;;;;;5053771;28;20502;-45
2021/06/05 09:18:52;;;;;;;5.53;4.30;;;24.10;68.50;;;;;;5054146;28;20455;-45
2021/06/05 09:21:27;;;;;;;3.90;3.60;;;24.60;68.60;;;;;;5053762;28;20996;-44
2021/06/05 09:23:54;;;;;;;5.00;4.50;;;24.40;68.10;;;;;;5053618;28;20870;-45
2021/06/05 09:26:24;;;;;;;4.20;3.90;;;24.10;67.40;;;;;;5053510;28;20483;-44
2021/06/05 09:29:08;;;;;;;4.23;3.87;;;24.20;67.10;;;;;;5053089;28;20507;-46
2021/06/05 09:31:34;;;;;;;6.97;4.67;;;24.20;66.70;;;;;;5053241;28;20924;-44
2021/06/05 09:34:13;;;;;;;7.23;3.93;;;24.20;66.60;;;;;;5053886;28;20443;-44
2021/06/05 09:36:39;;;;;;;5.47;4.97;;;24.50;66.60;;;;;;5053536;28;20437;-46
2021/06/05 09:39:09;;;;;;;7.50;4.00;;;24.40;66.60;;;;;;5053038;28;20529;-45
2021/06/05 09:41:42;;;;;;;4.67;3.93;;;24.80;66.90;;;;;;5053529;28;20476;-46
2021/06/05 09:44:22;;;;;;;8.00;4.10;;;24.40;66.40;;;;;;5053529;28;20456;-45
2021/06/05 09:46:59;;;;;;;5.03;4.53;;;24.90;66.70;;;;;;5052970;28;20574;-46
2021/06/05 09:49:30;;;;;;;4.90;4.40;;;25.10;66.90;;;;;;5052795;28;20434;-47
2021/06/05 09:52:07;;;;;;;5.13;4.27;;;24.90;67.00;;;;;;5053342;28;20438;-46
2021/06/05 09:54:36;;;;;;;6.77;4.40;;;25.10;66.80;;;;;;5052965;28;20460;-45
2021/06/05 09:57:24;;;;;;;7.00;4.50;;;25.20;66.20;;;;;;5052294;28;20466;-45
2021/06/05 10:00:09;;;;;;;4.40;4.10;;;25.50;65.40;;;;;;5053379;28;20935;-45
2021/06/05 10:02:39;;;;;;;4.23;3.83;;;25.50;64.90;;;;;;5053327;28;20458;-45
2021/06/05 10:05:15;;;;;;;5.03;4.33;;;25.30;64.70;;;;;;5052432;28;20862;-45
2021/06/05 10:07:42;;;;;;;5.30;3.90;;;25.40;64.30;;;;;;5052343;28;20788;-45
2021/06/05 10:10:14;;;;;;;4.30;3.87;;;25.40;63.10;;;;;;5052245;28;20437;-45
2021/06/05 10:12:41;;;;;;;4.33;3.93;;;25.50;62.90;;;;;;5052794;28;20440;-46
2021/06/05 10:15:12;;;;;;;4.73;4.33;;;25.70;63.70;;;;;;5052720;28;20438;-46
2021/06/05 10:17:45;;;;;;;7.03;4.00;;;25.40;64.00;;;;;;5051924;28;20549;-44
2021/06/05 10:20:21;;;;;;;5.73;5.23;;;25.50;64.10;;;;;;5051659;28;20462;-45
2021/06/05 10:22:50;;;;;;;6.37;4.80;;;25.40;63.90;;;;;;5052306;28;20438;-45
2021/06/05 10:25:24;;;;;;;5.13;4.03;;;25.40;63.80;;;;;;5051770;28;20558;-45
2021/06/05 10:27:50;;;;;;;7.80;4.33;;;25.60;63.60;;;;;;5051916;28;20548;-44
2021/06/05 10:30:30;;;;;;;4.40;3.90;;;25.60;64.00;;;;;;5050231;28;20442;-44
2021/06/05 10:32:59;;;;;;;5.17;4.27;;;25.70;63.70;;;;;;5051633;28;20525;-45
2021/06/05 10:35:30;;;;;;;4.43;3.93;;;25.40;63.40;;;;;;5050632;28;21038;-45
2021/06/05 10:38:04;;;;;;;4.20;3.50;;;25.40;63.40;;;;;;5050662;28;20465;-45
2021/06/05 10:40:31;;;;;;;4.90;4.50;;;25.70;64.00;;;;;;5051660;28;20472;-45
2021/06/05 10:42:57;;;;;;;5.97;4.17;;;25.30;63.30;;;;;;5050565;28;20450;-45
2021/06/05 10:45:29;;;;;;;6.30;4.70;;;25.60;63.40;;;;;;5051586;28;20486;-45
2021/06/05 10:48:01;;;;;;;8.00;3.90;;;25.40;63.10;;;;;;5069540;22;20556;-50
2021/06/05 10:50:30;;;;;;;5.67;5.17;;;25.60;63.20;;;;;;5029091;28;20427;-51
2021/06/05 10:53:01;;;;;;;4.83;4.50;;;25.50;63.20;;;;;;5029595;28;20565;-48
2021/06/05 10:55:31;;;;;;;5.10;3.90;;;25.60;63.30;;;;;;5027992;28;20448;-49
2021/06/05 10:58:17;;;;;;;4.70;4.30;;;25.30;63.00;;;;;;5027940;28;20560;-50
2021/06/05 11:00:49;;;;;;;4.73;4.30;;;25.40;62.90;;;;;;5029558;28;20916;-49
2021/06/05 11:03:43;;;;;;;4.53;4.13;;;25.50;63.30;;;;;;5029171;28;20458;-50
2021/06/05 11:06:11;;;;;;;7.40;3.93;;;25.20;62.60;;;;;;5022578;28;20608;-49
2021/06/05 11:08:48;;;;;;;4.80;4.40;;;25.50;62.90;;;;;;5028925;28;20534;-50
2021/06/05 11:11:34;;;;;;;4.70;4.30;;;25.30;62.40;;;;;;5029440;28;20523;-49
2021/06/05 11:14:01;;;;;;;6.47;3.87;;;25.10;62.20;;;;;;5013431;28;20475;-49
2021/06/05 11:17:19;;;;;;;4.97;4.50;;;25.50;62.70;;;;;;5028768;28;20510;-49
2021/06/05 11:19:51;;;;;;;4.50;4.10;;;25.30;61.60;;;;;;4967592;28;20454;-51
2021/06/05 11:22:19;;;;;;;6.13;3.80;;;25.50;61.90;;;;;;4951255;28;20447;-50
2021/06/05 11:25:25;;;;;;;4.83;4.03;;;25.20;60.90;;;;;;4996952;28;20535;-49
2021/06/05 11:27:54;;;;;;;4.60;4.20;;;25.40;61.10;;;;;;5025418;28;20479;-50
2021/06/05 11:30:39;;;;;;;8.37;3.83;;;25.40;61.20;;;;;;5028821;28;20439;-50
2021/06/05 11:33:08;;;;;;;4.90;4.50;;;25.50;61.50;;;;;;5028760;28;20454;-49
2021/06/05 11:35:46;;;;;;;5.50;4.47;;;25.10;61.10;;;;;;5028924;28;20865;-49
2021/06/05 11:38:34;;;;;;;4.30;3.90;;;25.50;61.20;;;;;;5028538;28;20490;-50
2021/06/05 11:41:06;;;;;;;4.70;4.30;;;25.50;61.20;;;;;;5028878;28;20443;-49
2021/06/05 11:43:51;;;;;;;6.30;4.27;;;25.40;60.40;;;;;;5028773;28;20431;-49
2021/06/05 11:46:49;;;;;;;4.40;4.00;;;25.10;59.70;;;;;;5029194;28;20562;-49
2021/06/05 11:49:44;;;;;;;5.10;4.37;;;25.50;59.90;;;;;;5028032;28;20869;-49
2021/06/05 11:52:49;;;;;;;4.10;3.80;;;25.50;60.50;;;;;;5028539;28;20439;-49
2021/06/05 11:55:45;;;;;;;6.27;4.57;;;25.50;60.20;;;;;;5028605;28;20467;-50
2021/06/05 11:58:34;;;;;;;5.33;3.90;;;25.50;60.80;;;;;;5028254;28;20541;-50
2021/06/05 12:01:11;;;;;;;5.47;4.33;;;25.70;61.10;;;;;;5029273;28;20939;-50
2021/06/05 12:03:47;;;;;;;5.30;4.10;;;25.30;60.50;;;;;;5030751;28;20514;-50
2021/06/05 12:06:17;;;;;;;4.50;4.10;;;25.60;60.40;;;;;;5032699;28;20467;-50
2021/06/05 12:08:44;;;;;;;5.10;4.20;;;25.60;60.60;;;;;;5032547;28;20451;-50
2021/06/05 12:11:21;;;;;;;4.50;4.10;;;25.20;59.80;;;;;;5032814;28;20581;-50
2021/06/05 12:13:48;;;;;;;4.30;3.90;;;25.50;59.30;;;;;;5031070;28;20973;-49
2021/06/05 12:16:17;;;;;;;5.63;5.13;;;25.70;59.20;;;;;;5032778;28;20526;-50
2021/06/05 12:18:46;;;;;;;5.77;4.13;;;25.60;59.20;;;;;;5032046;28;20547;-50
2021/06/05 12:21:28;;;;;;;5.33;4.67;;;25.70;58.80;;;;;;5032089;28;20467;-50
2021/06/05 12:23:55;;;;;;;6.63;4.70;;;25.80;58.60;;;;;;5032046;28;20947;-50
2021/06/05 12:26:24;;;;;;;4.00;3.70;;;25.80;58.90;;;;;;5031741;28;20527;-50
2021/06/05 12:28:53;;;;;;;6.27;4.27;;;25.80;58.80;;;;;;5030364;28;20809;-49
2021/06/05 12:31:30;;;;;;;4.50;4.10;;;25.80;58.90;;;;;;5032021;28;20471;-50
2021/06/05 12:33:58;;;;;;;3.93;3.63;;;25.80;58.90;;;;;;5032150;28;20435;-50
2021/06/05 12:36:26;;;;;;;4.13;3.70;;;25.90;58.80;;;;;;5032346;28;20450;-50
2021/06/05 12:38:57;;;;;;;4.60;4.20;;;25.80;58.60;;;;;;5031742;28;20458;-50
2021/06/05 12:41:25;;;;;;;4.13;3.40;;;25.50;58.30;;;;;;5032210;28;20608;-49
2021/06/05 12:43:52;;;;;;;7.40;4.20;;;25.80;58.30;;;;;;5031836;28;20447;-51
2021/06/05 12:46:25;;;;;;;5.30;3.40;;;25.80;58.20;;;;;;5031762;28;20485;-50
2021/06/05 12:48:55;;;;;;;4.27;3.90;;;25.50;57.60;;;;;;5031332;28;20557;-50
2021/06/05 12:51:28;;;;;;;5.20;3.63;;;25.80;57.60;;;;;;5032051;28;20549;-50
2021/06/05 12:54:00;;;;;;;4.20;3.80;;;25.90;57.50;;;;;;5032029;28;20518;-51
2021/06/05 12:56:32;;;;;;;4.40;3.87;;;25.80;56.90;;;;;;5032590;28;20439;-50
2021/06/05 12:59:01;;;;;;;4.10;3.20;;;25.80;56.60;;;;;;5031755;28;20447;-49
2021/06/05 13:01:32;;;;;;;3.70;3.40;;;25.60;56.30;;;;;;5031888;28;20483;-49